Time,TemperatureF,DewpointF,PressureIn,WindDirection,WindDirectionDegrees,WindSpeedMPH,WindSpeedGustMPH,Humidity,HourlyPrecipIn,Conditions,Clouds,dailyrainin,SoftwareType,DateUTC
2013-08-15 00:02:00,48.9,45.8,29.53,NNW,338,0.0,0.0,89,0.00,CLR,SCT,0.00,WeatherDisplay:10.37,2013-08-15 08:02:00,
2013-08-15 00:07:00,49.6,46.8,29.53,NNW,338,0.0,0.0,90,0.00,CLR,SCT,0.00,WeatherDisplay:10.37,2013-08-15 08:07:00,
2013-08-15 00:12:00,50.2,47.4,29.53,NNW,338,0.0,0.0,90,0.00,CLR,SCT,0.00,WeatherDisplay:10.37,2013-08-15 08:12:00,
2013-08-15 00:17:00,50.4,47.8,29.53,NNW,338,0.0,0.0,91,0.00,CLR,SCT,0.00,WeatherDisplay:10.37,2013-08-15 08:17:00,
2013-08-15 00:22:00,50.4,47.8,29.53,NNW,338,0.0,0.0,91,0.00,CLR,SCT,0.00,WeatherDisplay:10.37,2013-08-15 08:22:00,
2013-08-15 00:27:00,50.2,47.7,29.53,NNW,338,0.0,0.0,91,0.00,CLR,SCT,0.00,WeatherDisplay:10.37,2013-08-15 08:27:00,
2013-08-15 00:32:00,50.5,48.3,29.53,NNW,338,0.0,0.0,92,0.00,CLR,SCT,0.00,WeatherDisplay:10.37,2013-08-15 08:32:00,
2013-08-15 00:37:00,50.5,48.3,29.53,NNW,338,0.0,0.0,92,0.00,CLR,SCT,0.00,WeatherDisplay:10.37,2013-08-15 08:37:00,
2013-08-15 00:42:00,50.9,48.7,29.53,NNW,338,0.0,0.0,92,0.00,CLR,SCT,0.00,WeatherDisplay:10.37,2013-08-15 08:42:00,
2013-08-15 00:47:00,50.7,48.5,29.53,NNW,338,0.0,0.0,92,0.00,CLR,SCT,0.00,WeatherDisplay:10.37,2013-08-15 08:47:00,
2013-08-15 00:52:00,50.9,48.9,29.53,NNW,338,0.0,0.0,93,0.00,CLR,SCT,0.00,WeatherDisplay:10.37,2013-08-15 08:52:00,
2013-08-15 00:57:00,50.7,48.8,29.53,NNW,338,0.0,0.0,93,0.00,CLR,SCT,0.00,WeatherDisplay:10.37,2013-08-15 08:57:00,
2013-08-15 01:02:00,50.7,48.8,29.53,NNW,338,0.0,0.0,93,0.00,CLR,SCT,0.00,WeatherDisplay:10.37,2013-08-15 09:02:00,
2013-08-15 01:07:00,50.9,48.9,29.53,NNW,338,0.0,0.0,93,0.00,CLR,SCT,0.00,WeatherDisplay:10.37,2013-08-15 09:07:00,
2013-08-15 01:12:00,50.9,48.9,29.53,NNW,338,0.0,0.0,93,0.00,CLR,SCT,0.00,WeatherDisplay:10.37,2013-08-15 09:12:00,
2013-08-15 01:17:00,50.4,48.4,29.53,NNW,338,0.0,0.0,93,0.00,CLR,SCT,0.00,WeatherDisplay:10.37,2013-08-15 09:17:00,
2013-08-15 01:22:00,50.2,48.2,29.53,NNW,338,0.0,0.0,93,0.00,CLR,SCT,0.00,WeatherDisplay:10.37,2013-08-15 09:22:00,
2013-08-15 01:27:00,50.0,47.8,29.53,NNW,338,0.0,0.0,92,0.00,CLR,SCT,0.00,WeatherDisplay:10.37,2013-08-15 09:27:00,
2013-08-15 01:33:00,50.0,47.8,29.53,NNW,338,0.0,0.0,92,0.00,CLR,SCT,0.00,WeatherDisplay:10.37,2013-08-15 09:33:00,
2013-08-15 01:38:00,50.0,47.5,29.53,NNW,338,0.0,0.0,91,0.00,CLR,SCT,0.00,WeatherDisplay:10.37,2013-08-15 09:38:00,
2013-08-15 01:43:00,49.8,47.3,29.53,NNW,338,0.0,0.0,91,0.00,CLR,SCT,0.00,WeatherDisplay:10.37,2013-08-15 09:43:00,
2013-08-15 01:48:00,49.6,46.8,29.50,NNW,338,0.0,0.0,90,0.00,CLR,SCT,0.00,WeatherDisplay:10.37,2013-08-15 09:48:00,
2013-08-15 01:53:00,49.3,46.5,29.50,NNW,338,0.0,0.0,90,0.00,CLR,SCT,0.00,WeatherDisplay:10.37,2013-08-15 09:53:00,
2013-08-15 01:58:00,49.5,46.6,29.50,NNW,338,0.0,0.0,90,0.00,CLR,SCT,0.00,WeatherDisplay:10.37,2013-08-15 09:58:00,
2013-08-15 02:03:00,49.6,47.1,29.50,NNW,338,0.0,0.0,91,0.00,CLR,SCT,0.00,WeatherDisplay:10.37,2013-08-15 10:03:00,
2013-08-15 02:08:00,49.6,47.1,29.50,NNW,338,0.0,0.0,91,0.00,CLR,SCT,0.00,WeatherDisplay:10.37,2013-08-15 10:08:00,
2013-08-15 02:13:00,49.8,47.3,29.50,NNW,338,0.0,0.0,91,0.00,CLR,SCT,0.00,WeatherDisplay:10.37,2013-08-15 10:13:00,
2013-08-15 02:18:00,50.0,47.5,29.50,NNW,338,0.0,0.0,91,0.00,CLR,SCT,0.00,WeatherDisplay:10.37,2013-08-15 10:18:00,
2013-08-15 02:23:00,50.2,47.9,29.50,NNW,338,0.0,0.0,92,0.00,CLR,SCT,0.00,WeatherDisplay:10.37,2013-08-15 10:23:00,
2013-08-15 02:28:00,50.2,47.9,29.50,NNW,338,0.0,0.0,92,0.00,CLR,SCT,0.00,WeatherDisplay:10.37,2013-08-15 10:28:00,
2013-08-15 02:33:00,50.2,47.9,29.50,NNW,338,0.0,0.0,92,0.00,CLR,SCT,0.00,WeatherDisplay:10.37,2013-08-15 10:33:00,
2013-08-15 02:38:00,50.0,47.8,29.50,NNW,338,0.0,0.0,92,0.00,CLR,SCT,0.00,WeatherDisplay:10.37,2013-08-15 10:38:00,
2013-08-15 02:43:00,50.0,47.8,29.50,NNW,338,0.0,0.0,92,0.00,CLR,SCT,0.00,WeatherDisplay:10.37,2013-08-15 10:43:00,
2013-08-15 02:48:00,49.8,47.9,29.50,NNW,338,0.0,0.0,93,0.00,CLR,SCT,0.00,WeatherDisplay:10.37,2013-08-15 10:48:00,
2013-08-15 02:53:00,50.0,47.8,29.50,NNW,338,0.0,0.0,92,0.00,CLR,SCT,0.00,WeatherDisplay:10.37,2013-08-15 10:53:00,
2013-08-15 02:58:00,50.0,48.1,29.50,NNW,338,0.0,0.0,93,0.00,CLR,SCT,0.00,WeatherDisplay:10.37,2013-08-15 10:58:00,
2013-08-15 03:03:00,49.8,47.9,29.50,NNW,338,0.0,0.0,93,0.00,CLR,SCT,0.00,WeatherDisplay:10.37,2013-08-15 11:03:00,
2013-08-15 03:08:00,49.8,47.9,29.50,NNW,338,0.0,0.0,93,0.00,CLR,SCT,0.00,WeatherDisplay:10.37,2013-08-15 11:08:00,
2013-08-15 03:13:00,50.0,48.1,29.50,NNW,338,0.0,0.0,93,0.00,CLR,SCT,0.00,WeatherDisplay:10.37,2013-08-15 11:13:00,
2013-08-15 03:18:00,50.2,48.2,29.50,NNW,338,0.0,0.0,93,0.00,CLR,SCT,0.00,WeatherDisplay:10.37,2013-08-15 11:18:00,
2013-08-15 03:23:00,50.5,48.6,29.50,NNW,338,0.0,0.0,93,0.00,CLR,SCT,0.00,WeatherDisplay:10.37,2013-08-15 11:23:00,
2013-08-15 03:28:00,50.9,49.2,29.50,NNW,338,0.0,0.0,94,0.00,CLR,SCT,0.00,WeatherDisplay:10.37,2013-08-15 11:28:00,
2013-08-15 03:33:00,50.5,48.9,29.50,NNW,338,0.0,0.0,94,0.00,CLR,SCT,0.00,WeatherDisplay:10.37,2013-08-15 11:33:00,
2013-08-15 03:38:00,50.4,48.7,29.50,NNW,338,0.0,0.0,94,0.00,CLR,SCT,0.00,WeatherDisplay:10.37,2013-08-15 11:38:00,
2013-08-15 03:43:00,50.7,49.1,29.50,NNW,338,0.0,0.0,94,0.00,CLR,SCT,0.00,WeatherDisplay:10.37,2013-08-15 11:43:00,
2013-08-15 03:48:00,51.3,49.6,29.50,NNW,338,0.0,0.0,94,0.00,CLR,SCT,0.00,WeatherDisplay:10.37,2013-08-15 11:48:00,
2013-08-15 03:53:00,51.8,50.1,29.50,SSE,158,0.0,0.0,94,0.00,CLR,SCT,0.00,WeatherDisplay:10.37,2013-08-15 11:53:00,
2013-08-15 03:58:00,51.6,49.9,29.50,SSE,158,0.0,0.0,94,0.00,CLR,SCT,0.00,WeatherDisplay:10.37,2013-08-15 11:58:00,
2013-08-15 04:03:00,52.5,50.8,29.50,SSE,158,0.0,0.0,94,0.00,CLR,SCT,0.00,WeatherDisplay:10.37,2013-08-15 12:03:00,
2013-08-15 04:08:00,52.9,51.5,29.50,SSE,158,0.0,0.0,95,0.00,CLR,SCT,0.00,WeatherDisplay:10.37,2013-08-15 12:08:00,
2013-08-15 04:13:00,53.4,52.0,29.50,SSE,158,0.0,0.0,95,0.00,CLR,SCT,0.00,WeatherDisplay:10.37,2013-08-15 12:13:00,
2013-08-15 04:18:00,53.6,52.2,29.47,SSE,158,0.0,0.0,95,0.00,CLR,SCT,0.00,WeatherDisplay:10.37,2013-08-15 12:18:00,
2013-08-15 04:23:00,53.8,52.4,29.47,SSE,158,0.0,0.0,95,0.00,CLR,SCT,0.00,WeatherDisplay:10.37,2013-08-15 12:23:00,
2013-08-15 04:28:00,54.0,52.6,29.47,SSE,158,0.0,0.0,95,0.00,CLR,SCT,0.00,WeatherDisplay:10.37,2013-08-15 12:28:00,
2013-08-15 04:33:00,54.1,52.7,29.47,SSE,158,0.0,0.0,95,0.00,CLR,SCT,0.00,WeatherDisplay:10.37,2013-08-15 12:33:00,
2013-08-15 04:38:00,54.1,52.7,29.47,SSE,158,0.0,0.0,95,0.00,CLR,SCT,0.00,WeatherDisplay:10.37,2013-08-15 12:38:00,
2013-08-15 04:43:00,54.1,52.7,29.47,SE,135,0.0,0.0,95,0.00,CLR,SCT,0.00,WeatherDisplay:10.37,2013-08-15 12:43:00,
2013-08-15 04:48:00,54.1,52.7,29.47,SE,135,0.0,0.0,95,0.00,CLR,SCT,0.00,WeatherDisplay:10.37,2013-08-15 12:48:00,
2013-08-15 04:53:00,54.0,52.6,29.47,SE,135,0.0,0.0,95,0.00,CLR,SCT,0.00,WeatherDisplay:10.37,2013-08-15 12:53:00,
2013-08-15 04:58:00,53.8,52.4,29.47,SE,135,0.0,0.0,95,0.00,CLR,SCT,0.00,WeatherDisplay:10.37,2013-08-15 12:58:00,
2013-08-15 05:03:00,53.6,52.2,29.47,SE,135,0.0,0.0,95,0.00,CLR,SCT,0.00,WeatherDisplay:10.37,2013-08-15 13:03:00,
2013-08-15 05:08:00,53.6,52.5,29.47,SE,135,0.0,0.0,96,0.00,CLR,SCT,0.00,WeatherDisplay:10.37,2013-08-15 13:08:00,
2013-08-15 05:13:00,54.1,53.0,29.47,SE,135,0.0,0.0,96,0.00,CLR,SCT,0.00,WeatherDisplay:10.37,2013-08-15 13:13:00,
2013-08-15 05:18:00,54.3,53.2,29.47,SE,135,0.0,0.0,96,0.00,CLR,SCT,0.00,WeatherDisplay:10.37,2013-08-15 13:18:00,
2013-08-15 05:23:00,54.1,53.0,29.47,SE,135,0.0,0.0,96,0.00,CLR,SCT,0.00,WeatherDisplay:10.37,2013-08-15 13:23:00,
2013-08-15 05:28:00,54.5,53.4,29.47,SE,135,0.0,0.0,96,0.00,CLR,SCT,0.00,WeatherDisplay:10.37,2013-08-15 13:28:00,
2013-08-15 05:33:00,54.7,53.6,29.47,SE,135,0.0,0.0,96,0.00,CLR,SCT,0.00,WeatherDisplay:10.37,2013-08-15 13:33:00,
2013-08-15 05:38:00,55.0,53.9,29.47,SE,135,0.0,0.0,96,0.00,CLR,SCT,0.00,WeatherDisplay:10.37,2013-08-15 13:38:00,
2013-08-15 05:43:00,55.0,53.9,29.47,SE,135,0.0,0.0,96,0.00,CLR,SCT,0.00,WeatherDisplay:10.37,2013-08-15 13:43:00,
2013-08-15 05:48:00,55.2,54.1,29.47,SE,135,0.0,0.0,96,0.00,CLR,SCT,0.00,WeatherDisplay:10.37,2013-08-15 13:48:00,
2013-08-15 05:53:00,55.2,54.1,29.47,SE,135,0.0,0.0,96,0.00,CLR,SCT,0.00,WeatherDisplay:10.37,2013-08-15 13:53:00,
2013-08-15 05:58:00,55.4,54.3,29.47,SE,135,0.0,0.0,96,0.00,CLR,SCT,0.00,WeatherDisplay:10.37,2013-08-15 13:58:00,
2013-08-15 06:03:00,55.4,54.3,29.47,SE,135,0.0,0.0,96,0.00,CLR,SCT,0.00,WeatherDisplay:10.37,2013-08-15 14:03:00,
2013-08-15 06:08:00,55.6,54.5,29.47,SE,135,0.0,0.0,96,0.00,CLR,SCT,0.00,WeatherDisplay:10.37,2013-08-15 14:08:00,
2013-08-15 06:14:00,55.6,54.5,29.47,SE,135,0.0,0.0,96,0.00,CLR,SCT,0.00,WeatherDisplay:10.37,2013-08-15 14:14:00,
2013-08-15 06:19:00,55.6,54.5,29.47,SE,135,0.0,0.0,96,0.00,CLR,SCT,0.00,WeatherDisplay:10.37,2013-08-15 14:19:00,
2013-08-15 06:24:00,55.9,54.8,29.47,SE,135,0.0,0.0,96,0.00,CLR,SCT,0.00,WeatherDisplay:10.37,2013-08-15 14:24:00,
2013-08-15 06:29:00,55.4,54.3,29.47,SE,135,0.0,0.0,96,0.00,CLR,SCT,0.00,WeatherDisplay:10.37,2013-08-15 14:29:00,
2013-08-15 06:34:00,55.6,54.5,29.47,SE,135,0.0,0.0,96,0.00,CLR,SCT,0.00,WeatherDisplay:10.37,2013-08-15 14:34:00,
2013-08-15 06:39:00,55.9,54.8,29.47,SE,135,0.0,0.0,96,0.00,CLR,SCT,0.00,WeatherDisplay:10.37,2013-08-15 14:39:00,
2013-08-15 06:44:00,56.1,55.0,29.47,SE,135,0.0,0.0,96,0.00,CLR,SCT,0.00,WeatherDisplay:10.37,2013-08-15 14:44:00,
2013-08-15 06:49:00,56.3,55.2,29.47,SE,135,0.0,0.0,96,0.00,CLR,SCT,0.00,WeatherDisplay:10.37,2013-08-15 14:49:00,
2013-08-15 06:55:00,56.7,55.5,29.47,SE,135,0.0,0.0,96,0.00,CLR,SCT,0.00,WeatherDisplay:10.37,2013-08-15 14:55:00,
2013-08-15 07:00:00,56.8,55.7,29.44,SE,135,0.0,0.0,96,0.00,CLR,SCT,0.00,WeatherDisplay:10.37,2013-08-15 15:00:00,
2013-08-15 07:05:00,57.0,56.2,29.44,SE,135,0.0,0.0,97,0.00,CLR,SCT,0.00,WeatherDisplay:10.37,2013-08-15 15:05:00,
2013-08-15 07:10:00,57.2,56.1,29.44,SE,135,0.0,0.0,96,0.00,CLR,SCT,0.00,WeatherDisplay:10.37,2013-08-15 15:10:00,
2013-08-15 07:15:00,57.6,56.4,29.44,SE,135,0.0,0.0,96,0.00,CLR,SCT,0.00,WeatherDisplay:10.37,2013-08-15 15:15:00,
2013-08-15 07:20:00,58.1,57.0,29.44,SE,135,0.0,0.0,96,0.00,CLR,SCT,0.00,WeatherDisplay:10.37,2013-08-15 15:20:00,
2013-08-15 07:25:00,58.3,57.1,29.44,SE,135,0.0,0.0,96,0.00,CLR,SCT,0.00,WeatherDisplay:10.37,2013-08-15 15:25:00,
2013-08-15 07:30:00,58.5,57.3,29.47,SE,135,0.0,0.0,96,0.00,CLR,SCT,0.00,WeatherDisplay:10.37,2013-08-15 15:30:00,
2013-08-15 07:35:00,58.5,57.3,29.47,SE,135,0.0,0.0,96,0.00,CLR,SCT,0.00,WeatherDisplay:10.37,2013-08-15 15:35:00,
2013-08-15 07:40:00,58.8,57.7,29.47,SE,135,0.0,0.0,96,0.00,CLR,SCT,0.00,WeatherDisplay:10.37,2013-08-15 15:40:00,
2013-08-15 07:45:00,59.2,58.0,29.44,SE,135,0.0,0.0,96,0.00,CLR,SCT,0.00,WeatherDisplay:10.37,2013-08-15 15:45:00,
2013-08-15 07:50:00,59.5,58.4,29.44,SE,135,0.0,0.0,96,0.00,CLR,SCT,0.00,WeatherDisplay:10.37,2013-08-15 15:50:00,
2013-08-15 07:55:00,59.7,58.6,29.44,SE,135,0.0,0.0,96,0.00,CLR,SCT,0.00,WeatherDisplay:10.37,2013-08-15 15:55:00,
2013-08-15 08:01:00,60.1,58.9,29.44,SE,135,0.0,0.0,96,0.00,CLR,SCT,0.00,WeatherDisplay:10.37,2013-08-15 16:01:00,
2013-08-15 08:06:00,60.3,59.1,29.44,SE,135,0.0,0.0,96,0.00,CLR,SCT,0.00,WeatherDisplay:10.37,2013-08-15 16:06:00,
2013-08-15 08:11:00,60.1,58.9,29.44,SE,135,0.0,0.0,96,0.00,CLR,SCT,0.00,WeatherDisplay:10.37,2013-08-15 16:11:00,
2013-08-15 08:16:00,59.7,58.6,29.44,SE,135,0.0,0.0,96,0.00,CLR,SCT,0.00,WeatherDisplay:10.37,2013-08-15 16:16:00,
2013-08-15 08:21:00,59.4,58.2,29.44,SE,135,0.0,0.0,96,0.00,CLR,SCT,0.00,WeatherDisplay:10.37,2013-08-15 16:21:00,
2013-08-15 08:26:00,59.0,57.9,29.44,SE,135,0.0,0.0,96,0.00,CLR,SCT,0.00,WeatherDisplay:10.37,2013-08-15 16:26:00,
2013-08-15 08:31:00,58.5,57.6,29.44,SSE,158,0.0,0.0,97,0.00,CLR,SCT,0.00,WeatherDisplay:10.37,2013-08-15 16:31:00,
2013-08-15 08:36:00,58.5,57.6,29.44,SSE,158,0.0,0.0,97,0.00,CLR,SCT,0.00,WeatherDisplay:10.37,2013-08-15 16:36:00,
2013-08-15 08:41:00,58.3,57.4,29.44,SSE,158,0.0,0.0,97,0.00,CLR,SCT,0.00,WeatherDisplay:10.37,2013-08-15 16:41:00,
2013-08-15 08:46:00,58.1,57.3,29.44,SSE,158,0.0,0.0,97,0.00,CLR,SCT,0.00,WeatherDisplay:10.37,2013-08-15 16:46:00,
2013-08-15 08:51:00,57.6,56.7,29.44,SE,135,0.0,0.0,97,0.00,CLR,SCT,0.00,WeatherDisplay:10.37,2013-08-15 16:51:00,
2013-08-15 08:56:00,55.4,54.8,29.44,SSW,202,0.0,0.0,98,0.00,CLR,SCT,0.00,WeatherDisplay:10.37,2013-08-15 16:56:00,
2013-08-15 09:01:00,55.0,54.5,29.44,South,180,0.0,0.0,98,0.00,CLR,SCT,0.00,WeatherDisplay:10.37,2013-08-15 17:01:00,
2013-08-15 09:06:00,55.2,54.7,29.44,SSE,158,0.0,0.0,98,0.00,CLR,SCT,0.00,WeatherDisplay:10.37,2013-08-15 17:06:00,
2013-08-15 09:11:00,55.8,54.3,29.44,SSE,158,0.0,0.0,95,0.00,CLR,SCT,0.00,WeatherDisplay:10.37,2013-08-15 17:11:00,
2013-08-15 09:16:00,56.5,54.8,29.44,SSE,158,0.0,0.0,94,0.00,CLR,SCT,0.00,WeatherDisplay:10.37,2013-08-15 17:16:00,
2013-08-15 09:21:00,56.8,54.2,29.44,SSE,158,0.0,0.0,91,0.00,CLR,SCT,0.00,WeatherDisplay:10.37,2013-08-15 17:21:00,
2013-08-15 09:26:00,57.4,52.6,29.44,SSE,158,0.0,0.0,84,0.00,CLR,SCT,0.00,WeatherDisplay:10.37,2013-08-15 17:26:00,
2013-08-15 09:31:00,57.6,51.4,29.44,SSE,158,0.0,0.0,80,0.00,CLR,SCT,0.00,WeatherDisplay:10.37,2013-08-15 17:31:00,
2013-08-15 09:36:00,57.9,50.4,29.44,SSE,158,0.0,0.0,76,0.00,CLR,SCT,0.00,WeatherDisplay:10.37,2013-08-15 17:36:00,
2013-08-15 09:42:00,58.6,49.6,29.44,SE,135,0.0,0.0,72,0.00,CLR,SCT,0.00,WeatherDisplay:10.37,2013-08-15 17:42:00,
2013-08-15 09:47:00,58.6,49.3,29.44,SE,135,0.0,0.0,71,0.00,CLR,SCT,0.00,WeatherDisplay:10.37,2013-08-15 17:47:00,
2013-08-15 09:52:00,58.5,48.7,29.44,SE,135,0.0,0.0,70,0.00,CLR,SCT,0.00,WeatherDisplay:10.37,2013-08-15 17:52:00,
2013-08-15 09:57:00,59.4,49.6,29.44,SE,135,0.0,0.0,70,0.00,CLR,SCT,0.00,WeatherDisplay:10.37,2013-08-15 17:57:00,
2013-08-15 10:02:00,59.7,49.5,29.44,SE,135,0.0,0.0,69,0.00,CLR,SCT,0.00,WeatherDisplay:10.37,2013-08-15 18:02:00,
2013-08-15 10:07:00,60.3,49.7,29.44,SE,135,0.0,0.0,68,0.00,CLR,SCT,0.00,WeatherDisplay:10.37,2013-08-15 18:07:00,
2013-08-15 10:12:00,60.6,49.6,29.44,SE,135,0.0,0.0,67,0.00,CLR,SCT,0.00,WeatherDisplay:10.37,2013-08-15 18:12:00,
2013-08-15 10:17:00,61.3,49.9,29.44,SE,135,0.0,0.0,66,0.00,CLR,SCT,0.00,WeatherDisplay:10.37,2013-08-15 18:17:00,
2013-08-15 10:22:00,61.5,49.6,29.44,NNE,22,0.0,0.0,65,0.00,CLR,SCT,0.00,WeatherDisplay:10.37,2013-08-15 18:22:00,
2013-08-15 10:27:00,60.6,48.4,29.44,NE,45,0.0,0.0,64,0.00,CLR,SCT,0.00,WeatherDisplay:10.37,2013-08-15 18:27:00,
2013-08-15 10:33:00,60.4,48.6,29.44,North,0,0.0,0.0,65,0.00,CLR,SCT,0.00,WeatherDisplay:10.37,2013-08-15 18:33:00,
2013-08-15 10:38:00,60.3,48.9,29.44,North,0,0.0,0.0,66,0.00,CLR,SCT,0.00,WeatherDisplay:10.37,2013-08-15 18:38:00,
2013-08-15 10:43:00,60.6,49.2,29.44,North,0,0.0,0.0,66,0.00,CLR,SCT,0.00,WeatherDisplay:10.37,2013-08-15 18:43:00,
2013-08-15 10:48:00,59.4,48.0,29.44,NW,315,0.0,0.0,66,0.00,CLR,SCT,0.00,WeatherDisplay:10.37,2013-08-15 18:48:00,
2013-08-15 10:53:00,59.0,48.1,29.44,NW,315,0.0,0.0,67,0.00,CLR,SCT,0.00,WeatherDisplay:10.37,2013-08-15 18:53:00,
2013-08-15 10:58:00,60.1,49.9,29.44,NW,315,0.0,0.0,69,0.00,CLR,SCT,0.00,WeatherDisplay:10.37,2013-08-15 18:58:00,
2013-08-15 11:04:00,60.4,49.8,29.44,NW,315,0.0,0.0,68,0.00,CLR,SCT,0.00,WeatherDisplay:10.37,2013-08-15 19:04:00,
2013-08-15 11:09:00,60.8,49.4,29.44,NW,315,0.0,0.0,66,0.00,CLR,SCT,0.00,WeatherDisplay:10.37,2013-08-15 19:09:00,
2013-08-15 11:15:00,62.1,50.2,29.44,NW,315,0.0,0.0,65,0.00,CLR,SCT,0.00,WeatherDisplay:10.37,2013-08-15 19:15:00,
2013-08-15 11:20:00,62.1,48.9,29.44,NW,315,0.0,0.0,62,0.00,CLR,SCT,0.00,WeatherDisplay:10.37,2013-08-15 19:20:00,
2013-08-15 11:25:00,62.2,49.1,29.44,NNW,338,0.0,0.0,62,0.00,CLR,SCT,0.00,WeatherDisplay:10.37,2013-08-15 19:25:00,
2013-08-15 11:31:00,61.9,49.1,29.44,NNW,338,0.0,0.0,63,0.00,CLR,SCT,0.00,WeatherDisplay:10.37,2013-08-15 19:31:00,
2013-08-15 11:36:00,61.3,48.2,29.44,NNW,338,2.3,0.0,62,0.00,CLR,SCT,0.00,WeatherDisplay:10.37,2013-08-15 19:36:00,
2013-08-15 11:41:00,61.2,48.0,29.44,NNW,338,0.0,0.0,62,0.00,CLR,SCT,0.00,WeatherDisplay:10.37,2013-08-15 19:41:00,
2013-08-15 11:46:00,60.6,48.4,29.44,NW,315,0.0,0.0,64,0.00,CLR,SCT,0.00,WeatherDisplay:10.37,2013-08-15 19:46:00,
2013-08-15 11:51:00,61.0,48.7,29.44,NW,315,0.0,0.0,64,0.00,CLR,SCT,0.00,WeatherDisplay:10.37,2013-08-15 19:51:00,
2013-08-15 11:56:00,61.9,49.6,29.44,NW,315,0.0,0.0,64,0.00,CLR,SCT,0.00,WeatherDisplay:10.37,2013-08-15 19:56:00,
2013-08-15 12:01:00,63.0,49.7,29.44,NNW,338,0.0,0.0,62,0.00,CLR,SCT,0.00,WeatherDisplay:10.37,2013-08-15 20:01:00,
2013-08-15 12:06:00,61.9,47.8,29.44,NNW,338,0.0,0.0,60,0.00,CLR,SCT,0.00,WeatherDisplay:10.37,2013-08-15 20:06:00,
2013-08-15 12:11:00,62.6,49.0,29.44,NNW,338,0.0,0.0,61,0.00,CLR,SCT,0.00,WeatherDisplay:10.37,2013-08-15 20:11:00,
2013-08-15 12:16:00,63.9,49.2,29.44,NNW,338,0.0,0.0,59,0.00,CLR,SCT,0.00,WeatherDisplay:10.37,2013-08-15 20:16:00,
2013-08-15 12:23:00,61.5,47.5,29.44,NNW,338,0.0,0.0,60,0.00,CLR,SCT,0.00,WeatherDisplay:10.37,2013-08-15 20:23:00,
2013-08-15 12:28:00,61.7,48.5,29.44,North,0,0.0,0.0,62,0.00,CLR,SCT,0.00,WeatherDisplay:10.37,2013-08-15 20:28:00,
2013-08-15 12:33:00,61.5,47.9,29.44,North,0,0.0,0.0,61,0.00,CLR,SCT,0.00,WeatherDisplay:10.37,2013-08-15 20:33:00,
2013-08-15 12:38:00,62.2,49.5,29.44,North,0,0.0,0.0,63,0.00,CLR,SCT,0.00,WeatherDisplay:10.37,2013-08-15 20:38:00,
2013-08-15 12:44:00,62.6,49.4,29.44,NNW,338,0.0,0.0,62,0.00,CLR,SCT,0.00,WeatherDisplay:10.37,2013-08-15 20:44:00,
2013-08-15 12:49:00,63.0,49.7,29.47,NNW,338,0.0,0.0,62,0.00,CLR,SCT,0.00,WeatherDisplay:10.37,2013-08-15 20:49:00,
2013-08-15 12:54:00,61.2,48.0,29.47,NW,315,0.0,0.0,62,0.00,CLR,SCT,0.00,WeatherDisplay:10.37,2013-08-15 20:54:00,
2013-08-15 12:59:00,61.2,48.5,29.44,NW,315,0.0,0.0,63,0.00,CLR,SCT,0.00,WeatherDisplay:10.37,2013-08-15 20:59:00,
2013-08-15 13:04:00,60.6,48.4,29.44,NW,315,0.0,0.0,64,0.00,CLR,SCT,0.00,WeatherDisplay:10.37,2013-08-15 21:04:00,
2013-08-15 13:09:00,60.6,48.4,29.44,NW,315,0.0,0.0,64,0.00,CLR,SCT,0.00,WeatherDisplay:10.37,2013-08-15 21:09:00,
2013-08-15 13:14:00,59.7,47.9,29.44,NW,315,3.5,0.0,65,0.00,CLR,SCT,0.00,WeatherDisplay:10.37,2013-08-15 21:14:00,
2013-08-15 13:19:00,60.4,49.0,29.44,North,0,0.0,0.0,66,0.00,CLR,SCT,0.00,WeatherDisplay:10.37,2013-08-15 21:19:00,
2013-08-15 13:24:00,60.6,48.4,29.44,North,0,2.3,0.0,64,0.00,CLR,SCT,0.00,WeatherDisplay:10.37,2013-08-15 21:24:00,
2013-08-15 13:30:00,59.7,47.9,29.44,NNW,338,4.6,0.0,65,0.00,CLR,SCT,0.00,WeatherDisplay:10.37,2013-08-15 21:30:00,
2013-08-15 13:36:00,60.1,49.1,29.44,NNW,338,0.0,0.0,67,0.00,CLR,SCT,0.00,WeatherDisplay:10.37,2013-08-15 21:36:00,
2013-08-15 13:41:00,59.9,48.9,29.44,NNW,338,0.0,0.0,67,0.00,CLR,SCT,0.00,WeatherDisplay:10.37,2013-08-15 21:41:00,
2013-08-15 13:46:00,59.9,49.3,29.47,NNW,338,0.0,0.0,68,0.00,CLR,SCT,0.00,WeatherDisplay:10.37,2013-08-15 21:46:00,
2013-08-15 13:51:00,60.1,49.5,29.47,NNW,338,0.0,0.0,68,0.00,CLR,SCT,0.00,WeatherDisplay:10.37,2013-08-15 21:51:00,
2013-08-15 13:56:00,59.5,48.6,29.47,NW,315,2.3,0.0,67,0.00,CLR,SCT,0.00,WeatherDisplay:10.37,2013-08-15 21:56:00,
2013-08-15 14:02:00,59.2,48.2,29.44,NW,315,0.0,0.0,67,0.00,CLR,SCT,0.00,WeatherDisplay:10.37,2013-08-15 22:02:00,
2013-08-15 14:07:00,59.5,49.0,29.44,NNW,338,2.3,0.0,68,0.00,CLR,SCT,0.00,WeatherDisplay:10.37,2013-08-15 22:07:00,
2013-08-15 14:12:00,59.7,49.1,29.44,NW,315,0.0,0.0,68,0.00,CLR,SCT,0.00,WeatherDisplay:10.37,2013-08-15 22:12:00,
2013-08-15 14:17:00,60.6,50.0,29.44,NNW,338,2.6,0.0,68,0.00,CLR,SCT,0.00,WeatherDisplay:10.37,2013-08-15 22:17:00,
2013-08-15 14:22:00,61.3,49.5,29.44,NNW,338,2.3,0.0,65,0.00,CLR,SCT,0.00,WeatherDisplay:10.37,2013-08-15 22:22:00,
2013-08-15 14:27:00,62.1,50.2,29.44,NNW,338,0.0,0.0,65,0.00,CLR,SCT,0.00,WeatherDisplay:10.37,2013-08-15 22:27:00,
2013-08-15 14:32:00,61.7,49.0,29.44,NNW,338,0.0,0.0,63,0.00,CLR,SCT,0.00,WeatherDisplay:10.37,2013-08-15 22:32:00,
2013-08-15 14:37:00,62.4,50.1,29.44,NNW,338,0.0,0.0,64,0.00,CLR,SCT,0.00,WeatherDisplay:10.37,2013-08-15 22:37:00,
2013-08-15 14:42:00,62.2,49.1,29.44,NNW,338,0.0,0.0,62,0.00,CLR,SCT,0.00,WeatherDisplay:10.37,2013-08-15 22:42:00,
2013-08-15 14:47:00,61.9,48.7,29.44,NNW,338,0.0,0.0,62,0.00,CLR,SCT,0.00,WeatherDisplay:10.37,2013-08-15 22:47:00,
2013-08-15 14:52:00,62.2,49.1,29.44,NNW,338,0.0,0.0,62,0.00,CLR,SCT,0.00,WeatherDisplay:10.37,2013-08-15 22:52:00,
2013-08-15 14:57:00,62.8,50.0,29.44,NNW,338,0.0,0.0,63,0.00,CLR,SCT,0.00,WeatherDisplay:10.37,2013-08-15 22:57:00,
2013-08-15 15:02:00,62.2,48.6,29.44,NNW,338,0.0,0.0,61,0.00,CLR,SCT,0.00,WeatherDisplay:10.37,2013-08-15 23:02:00,
2013-08-15 15:07:00,63.0,49.3,29.44,NNW,338,0.0,0.0,61,0.00,CLR,SCT,0.00,WeatherDisplay:10.37,2013-08-15 23:07:00,
2013-08-15 15:12:00,63.0,49.3,29.44,NNW,338,0.0,0.0,61,0.00,CLR,SCT,0.00,WeatherDisplay:10.37,2013-08-15 23:12:00,
2013-08-15 15:17:00,63.1,49.9,29.44,NNW,338,0.0,0.0,62,0.00,CLR,SCT,0.00,WeatherDisplay:10.37,2013-08-15 23:17:00,
2013-08-15 15:22:00,63.3,50.5,29.44,NNW,338,0.0,0.0,63,0.00,CLR,SCT,0.00,WeatherDisplay:10.37,2013-08-15 23:22:00,
2013-08-15 15:27:00,63.1,49.5,29.44,NNW,338,0.0,0.0,61,0.00,CLR,SCT,0.00,WeatherDisplay:10.37,2013-08-15 23:27:00,
2013-08-15 15:33:00,65.7,51.8,29.44,NNW,338,0.0,0.0,61,0.00,CLR,SCT,0.00,WeatherDisplay:10.37,2013-08-15 23:33:00,
2013-08-15 15:38:00,65.8,49.2,29.44,NNW,338,0.0,0.0,55,0.00,CLR,SCT,0.00,WeatherDisplay:10.37,2013-08-15 23:38:00,
2013-08-15 15:43:00,66.7,50.1,29.44,NNW,338,0.0,0.0,55,0.00,CLR,SCT,0.00,WeatherDisplay:10.37,2013-08-15 23:43:00,
2013-08-15 15:48:00,66.4,49.2,29.44,NNW,338,0.0,0.0,54,0.00,CLR,SCT,0.00,WeatherDisplay:10.37,2013-08-15 23:48:00,
2013-08-15 15:53:00,66.0,49.9,29.44,WNW,292,0.0,0.0,56,0.00,CLR,SCT,0.00,WeatherDisplay:10.37,2013-08-15 23:53:00,
2013-08-15 15:58:00,66.7,50.1,29.44,NNW,338,0.0,0.0,55,0.00,CLR,SCT,0.00,WeatherDisplay:10.37,2013-08-15 23:58:00,
2013-08-15 16:03:00,66.4,49.7,29.44,NNW,338,0.0,0.0,55,0.00,CLR,SCT,0.00,WeatherDisplay:10.37,2013-08-16 00:03:00,
2013-08-15 16:08:00,66.4,48.7,29.44,NW,315,0.0,0.0,53,0.00,CLR,SCT,0.00,WeatherDisplay:10.37,2013-08-16 00:08:00,
2013-08-15 16:13:00,66.7,49.1,29.44,NW,315,3.5,0.0,53,0.00,CLR,SCT,0.00,WeatherDisplay:10.37,2013-08-16 00:13:00,
2013-08-15 16:18:00,65.1,48.1,29.44,NW,315,0.0,0.0,54,0.00,CLR,SCT,0.00,WeatherDisplay:10.37,2013-08-16 00:18:00,
2013-08-15 16:23:00,64.2,49.1,29.44,NW,315,0.0,0.0,58,0.00,CLR,SCT,0.00,WeatherDisplay:10.37,2013-08-16 00:23:00,
2013-08-15 16:28:00,63.5,49.4,29.44,NNW,338,3.5,0.0,60,0.00,CLR,SCT,0.00,WeatherDisplay:10.37,2013-08-16 00:28:00,
2013-08-15 16:33:00,62.6,49.0,29.44,NNW,338,2.6,0.0,61,0.00,CLR,SCT,0.00,WeatherDisplay:10.37,2013-08-16 00:33:00,
2013-08-15 16:38:00,62.6,49.8,29.44,NNW,338,3.5,0.0,63,0.00,CLR,SCT,0.00,WeatherDisplay:10.37,2013-08-16 00:38:00,
2013-08-15 16:43:00,62.4,50.1,29.44,NNW,338,0.0,0.0,64,0.00,CLR,SCT,0.00,WeatherDisplay:10.37,2013-08-16 00:43:00,
2013-08-15 16:48:00,61.7,49.0,29.44,NW,315,3.6,0.0,63,0.00,CLR,SCT,0.00,WeatherDisplay:10.37,2013-08-16 00:48:00,
2013-08-15 16:53:00,61.5,49.2,29.44,NW,315,0.0,0.0,64,0.00,CLR,SCT,0.00,WeatherDisplay:10.37,2013-08-16 00:53:00,
2013-08-15 16:58:00,61.5,49.2,29.44,NNW,338,0.0,0.0,64,0.00,CLR,SCT,0.00,WeatherDisplay:10.37,2013-08-16 00:58:00,
2013-08-15 17:04:00,61.7,49.0,29.41,WNW,292,4.6,4.6,63,0.00,CLR,SCT,0.00,WeatherDisplay:10.37,2013-08-16 01:04:00,
2013-08-15 17:09:00,62.1,49.3,29.41,NW,315,0.0,0.0,63,0.00,CLR,SCT,0.00,WeatherDisplay:10.37,2013-08-16 01:09:00,
2013-08-15 17:14:00,61.9,48.7,29.41,NW,315,0.0,0.0,62,0.00,CLR,SCT,0.00,WeatherDisplay:10.37,2013-08-16 01:14:00,
2013-08-15 17:19:00,61.3,48.2,29.41,NW,315,5.8,5.8,62,0.00,CLR,SCT,0.00,WeatherDisplay:10.37,2013-08-16 01:19:00,
2013-08-15 17:24:00,60.6,48.4,29.41,NW,315,5.8,5.8,64,0.00,CLR,SCT,0.00,WeatherDisplay:10.37,2013-08-16 01:24:00,
2013-08-15 17:30:00,60.4,48.2,29.41,NW,315,4.0,4.0,64,0.00,CLR,SCT,0.00,WeatherDisplay:10.37,2013-08-16 01:30:00,
2013-08-15 17:36:00,60.6,49.2,29.41,NW,315,3.5,3.5,66,0.00,CLR,SCT,0.00,WeatherDisplay:10.37,2013-08-16 01:36:00,
2013-08-15 17:41:00,60.6,48.8,29.41,NW,315,2.6,0.0,65,0.00,CLR,SCT,0.00,WeatherDisplay:10.37,2013-08-16 01:41:00,
2013-08-15 17:46:00,60.6,48.8,29.41,NNW,338,4.6,4.6,65,0.00,CLR,SCT,0.00,WeatherDisplay:10.37,2013-08-16 01:46:00,
2013-08-15 17:51:00,60.8,49.4,29.41,NW,315,4.6,4.6,66,0.00,CLR,SCT,0.00,WeatherDisplay:10.37,2013-08-16 01:51:00,
2013-08-15 17:56:00,59.9,48.5,29.41,NW,315,4.0,4.0,66,0.00,CLR,SCT,0.00,WeatherDisplay:10.37,2013-08-16 01:56:00,
2013-08-15 18:01:00,59.4,48.8,29.44,NW,315,2.3,0.0,68,0.00,CLR,SCT,0.00,WeatherDisplay:10.37,2013-08-16 02:01:00,
2013-08-15 18:06:00,59.4,48.8,29.44,NW,315,5.8,5.8,68,0.00,CLR,SCT,0.00,WeatherDisplay:10.37,2013-08-16 02:06:00,
2013-08-15 18:11:00,59.5,49.4,29.44,NNW,338,3.5,0.0,69,0.00,CLR,SCT,0.00,WeatherDisplay:10.37,2013-08-16 02:11:00,
2013-08-15 18:16:00,59.5,49.4,29.41,NW,315,5.8,5.8,69,0.00,CLR,SCT,0.00,WeatherDisplay:10.37,2013-08-16 02:16:00,
2013-08-15 18:21:00,59.5,49.4,29.41,NW,315,5.8,5.8,69,0.00,CLR,SCT,0.00,WeatherDisplay:10.37,2013-08-16 02:21:00,
2013-08-15 18:26:00,60.1,49.9,29.41,NNW,338,3.5,0.0,69,0.00,CLR,SCT,0.00,WeatherDisplay:10.37,2013-08-16 02:26:00,
2013-08-15 18:31:00,60.3,50.0,29.41,NW,315,0.0,0.0,69,0.00,CLR,SCT,0.00,WeatherDisplay:10.37,2013-08-16 02:31:00,
2013-08-15 18:36:00,60.4,50.2,29.41,NW,315,4.6,4.6,69,0.00,CLR,SCT,0.00,WeatherDisplay:10.37,2013-08-16 02:36:00,
2013-08-15 18:41:00,59.9,49.3,29.41,NW,315,4.6,4.6,68,0.00,CLR,SCT,0.00,WeatherDisplay:10.37,2013-08-16 02:41:00,
2013-08-15 18:46:00,59.4,49.2,29.41,NNW,338,4.6,4.6,69,0.00,CLR,SCT,0.00,WeatherDisplay:10.37,2013-08-16 02:46:00,
2013-08-15 18:51:00,59.5,49.7,29.41,NW,315,3.5,0.0,70,0.00,CLR,SCT,0.00,WeatherDisplay:10.37,2013-08-16 02:51:00,
2013-08-15 18:56:00,59.4,49.6,29.41,NNW,338,4.0,4.0,70,0.00,CLR,SCT,0.00,WeatherDisplay:10.37,2013-08-16 02:56:00,
2013-08-15 19:01:00,59.0,49.2,29.41,NNW,338,4.9,4.9,70,0.00,CLR,SCT,0.00,WeatherDisplay:10.37,2013-08-16 03:01:00,
2013-08-15 19:06:00,59.0,49.2,29.41,NW,315,5.8,5.8,70,0.00,CLR,SCT,0.00,WeatherDisplay:10.37,2013-08-16 03:06:00,
2013-08-15 19:11:00,59.5,50.1,29.41,NW,315,4.9,4.9,71,0.00,CLR,SCT,0.00,WeatherDisplay:10.37,2013-08-16 03:11:00,
2013-08-15 19:16:00,59.9,50.1,29.41,NW,315,3.5,3.5,70,0.00,CLR,SCT,0.00,WeatherDisplay:10.37,2013-08-16 03:16:00,
2013-08-15 19:21:00,59.5,49.4,29.41,WNW,292,5.8,5.8,69,0.00,CLR,SCT,0.00,WeatherDisplay:10.37,2013-08-16 03:21:00,
2013-08-15 19:26:00,59.4,50.0,29.41,NW,315,5.8,5.8,71,0.00,CLR,SCT,0.00,WeatherDisplay:10.37,2013-08-16 03:26:00,
2013-08-15 19:32:00,59.2,50.2,29.41,WNW,292,5.8,5.8,72,0.00,CLR,SCT,0.00,WeatherDisplay:10.37,2013-08-16 03:32:00,
2013-08-15 19:37:00,59.2,50.5,29.41,North,0,3.5,3.5,73,0.00,CLR,SCT,0.00,WeatherDisplay:10.37,2013-08-16 03:37:00,
2013-08-15 19:42:00,59.0,50.4,29.41,NNW,338,4.6,4.6,73,0.00,CLR,SCT,0.00,WeatherDisplay:10.37,2013-08-16 03:42:00,
2013-08-15 19:47:00,58.5,49.8,29.41,NW,315,3.5,3.5,73,0.00,CLR,SCT,0.00,WeatherDisplay:10.37,2013-08-16 03:47:00,
2013-08-15 19:52:00,58.5,50.2,29.41,NW,315,4.9,4.9,74,0.00,CLR,SCT,0.00,WeatherDisplay:10.37,2013-08-16 03:52:00,
2013-08-15 19:57:00,58.5,50.2,29.41,NNW,338,5.8,5.8,74,0.00,CLR,SCT,0.00,WeatherDisplay:10.37,2013-08-16 03:57:00,
2013-08-15 20:01:00,58.5,50.2,29.38,NNW,338,4.6,4.6,74,0.00,CLR,SCT,0.00,WeatherDisplay:10.37,2013-08-16 04:01:00,
2013-08-15 20:06:00,58.6,50.7,29.38,NNW,338,0.0,0.0,75,0.00,CLR,SCT,0.00,WeatherDisplay:10.37,2013-08-16 04:06:00,
2013-08-15 20:11:00,58.5,50.6,29.38,NNW,338,2.3,0.0,75,0.00,CLR,SCT,0.00,WeatherDisplay:10.37,2013-08-16 04:11:00,
2013-08-15 20:16:00,58.1,50.2,29.38,NNW,338,0.0,0.0,75,0.00,CLR,SCT,0.00,WeatherDisplay:10.37,2013-08-16 04:16:00,
2013-08-15 20:21:00,57.9,50.4,29.38,NNW,338,3.5,3.5,76,0.00,CLR,SCT,0.00,WeatherDisplay:10.37,2013-08-16 04:21:00,
2013-08-15 20:26:00,57.6,50.4,29.38,NNW,338,3.5,3.5,77,0.00,CLR,SCT,0.00,WeatherDisplay:10.37,2013-08-16 04:26:00,
2013-08-15 20:31:00,57.2,50.4,29.38,NNW,338,4.9,0.0,78,0.00,CLR,SCT,0.00,WeatherDisplay:10.37,2013-08-16 04:31:00,
2013-08-15 20:36:00,56.7,50.6,29.38,NNW,338,2.6,2.6,80,0.00,CLR,SCT,0.00,WeatherDisplay:10.37,2013-08-16 04:36:00,
2013-08-15 20:41:00,56.3,50.5,29.38,NNW,338,3.5,3.5,81,0.00,CLR,SCT,0.00,WeatherDisplay:10.37,2013-08-16 04:41:00,
2013-08-15 20:46:00,56.5,51.1,29.35,NNW,338,2.3,0.0,82,0.00,CLR,SCT,0.00,WeatherDisplay:10.37,2013-08-16 04:46:00,
2013-08-15 20:51:00,56.7,51.2,29.35,NNW,338,3.5,0.0,82,0.00,CLR,SCT,0.00,WeatherDisplay:10.37,2013-08-16 04:51:00,
2013-08-15 20:56:00,56.8,51.4,29.35,NNW,338,0.0,0.0,82,0.00,CLR,SCT,0.00,WeatherDisplay:10.37,2013-08-16 04:56:00,
2013-08-15 21:01:00,56.7,50.9,29.35,NNW,338,0.0,0.0,81,0.00,CLR,SCT,0.00,WeatherDisplay:10.37,2013-08-16 05:01:00,
2013-08-15 21:06:00,56.7,50.9,29.35,NNW,338,0.0,0.0,81,0.00,CLR,SCT,0.00,WeatherDisplay:10.37,2013-08-16 05:06:00,
2013-08-15 21:11:00,56.5,50.7,29.35,NNW,338,2.6,0.0,81,0.00,CLR,SCT,0.00,WeatherDisplay:10.37,2013-08-16 05:11:00,
2013-08-15 21:19:00,55.9,50.5,29.35,NNW,338,0.0,0.0,82,0.00,CLR,SCT,0.00,WeatherDisplay:10.37,2013-08-16 05:19:00,
2013-08-15 21:24:00,55.2,50.5,29.35,NNW,338,0.0,0.0,84,0.00,CLR,SCT,0.00,WeatherDisplay:10.37,2013-08-16 05:24:00,
2013-08-15 21:29:00,54.9,50.1,29.38,NNW,338,0.0,0.0,84,0.00,CLR,SCT,0.00,WeatherDisplay:10.37,2013-08-16 05:29:00,
2013-08-15 21:34:00,54.5,50.1,29.38,NNW,338,0.0,0.0,85,0.00,CLR,SCT,0.00,WeatherDisplay:10.37,2013-08-16 05:34:00,
2013-08-15 21:39:00,54.1,49.7,29.38,NNW,338,0.0,0.0,85,0.00,CLR,SCT,0.00,WeatherDisplay:10.37,2013-08-16 05:39:00,
2013-08-15 21:44:00,53.8,49.7,29.38,NNW,338,0.0,0.0,86,0.00,CLR,SCT,0.00,WeatherDisplay:10.37,2013-08-16 05:44:00,
2013-08-15 21:49:00,53.4,49.6,29.38,NNW,338,0.0,0.0,87,0.00,CLR,SCT,0.00,WeatherDisplay:10.37,2013-08-16 05:49:00,
2013-08-15 21:54:00,53.4,50.0,29.38,NNW,338,0.0,0.0,88,0.00,CLR,SCT,0.00,WeatherDisplay:10.37,2013-08-16 05:54:00,
2013-08-15 21:59:00,53.2,49.8,29.38,NNW,338,0.0,0.0,88,0.00,CLR,SCT,0.00,WeatherDisplay:10.37,2013-08-16 05:59:00,
2013-08-15 22:04:00,53.2,50.1,29.41,NNW,338,0.0,0.0,89,0.00,CLR,SCT,0.00,WeatherDisplay:10.37,2013-08-16 06:04:00,
2013-08-15 22:09:00,53.4,50.6,29.41,NNW,338,0.0,0.0,90,0.00,CLR,SCT,0.00,WeatherDisplay:10.37,2013-08-16 06:09:00,
2013-08-15 22:14:00,53.4,50.9,29.41,NNW,338,0.0,0.0,91,0.00,CLR,SCT,0.00,WeatherDisplay:10.37,2013-08-16 06:14:00,
2013-08-15 22:19:00,53.4,50.9,29.41,NNW,338,0.0,0.0,91,0.00,CLR,SCT,0.00,WeatherDisplay:10.37,2013-08-16 06:19:00,
2013-08-15 22:24:00,53.2,50.7,29.41,NNW,338,2.3,0.0,91,0.00,CLR,SCT,0.00,WeatherDisplay:10.37,2013-08-16 06:24:00,
2013-08-15 22:29:00,53.1,50.5,29.41,NNW,338,0.0,0.0,91,0.00,CLR,SCT,0.00,WeatherDisplay:10.37,2013-08-16 06:29:00,
2013-08-15 22:34:00,52.9,50.3,29.41,NNW,338,0.0,0.0,91,0.00,CLR,SCT,0.00,WeatherDisplay:10.37,2013-08-16 06:34:00,
2013-08-15 22:40:00,52.7,50.1,29.41,NNW,338,0.0,0.0,91,0.00,CLR,SCT,0.00,WeatherDisplay:10.37,2013-08-16 06:40:00,
2013-08-15 22:45:00,52.7,50.1,29.41,NNW,338,0.0,0.0,91,0.00,CLR,SCT,0.00,WeatherDisplay:10.37,2013-08-16 06:45:00,
2013-08-15 22:50:00,52.5,50.0,29.41,NNW,338,0.0,0.0,91,0.00,CLR,SCT,0.00,WeatherDisplay:10.37,2013-08-16 06:50:00,
2013-08-15 22:55:00,52.5,50.0,29.41,NNW,338,0.0,0.0,91,0.00,CLR,SCT,0.00,WeatherDisplay:10.37,2013-08-16 06:55:00,
2013-08-15 23:00:00,52.5,50.0,29.41,NNW,338,0.0,0.0,91,0.00,CLR,SCT,0.00,WeatherDisplay:10.37,2013-08-16 07:00:00,
2013-08-15 23:05:00,52.5,50.0,29.41,NNW,338,0.0,0.0,91,0.00,CLR,SCT,0.00,WeatherDisplay:10.37,2013-08-16 07:05:00,
2013-08-15 23:10:00,52.7,50.1,29.41,NNW,338,0.0,0.0,91,0.00,CLR,SCT,0.00,WeatherDisplay:10.37,2013-08-16 07:10:00,
2013-08-15 23:15:00,52.9,50.3,29.41,NNW,338,0.0,0.0,91,0.00,CLR,SCT,0.00,WeatherDisplay:10.37,2013-08-16 07:15:00,
2013-08-15 23:20:00,52.9,50.3,29.41,NNW,338,0.0,0.0,91,0.00,CLR,SCT,0.00,WeatherDisplay:10.37,2013-08-16 07:20:00,
2013-08-15 23:25:00,52.9,50.3,29.41,NNW,338,0.0,0.0,91,0.00,CLR,SCT,0.00,WeatherDisplay:10.37,2013-08-16 07:25:00,
2013-08-15 23:30:00,53.1,50.8,29.41,NNW,338,0.0,0.0,92,0.00,CLR,SCT,0.00,WeatherDisplay:10.37,2013-08-16 07:30:00,
2013-08-15 23:35:00,53.1,50.5,29.41,NNW,338,0.0,0.0,91,0.00,CLR,SCT,0.00,WeatherDisplay:10.37,2013-08-16 07:35:00,
2013-08-15 23:40:00,53.1,50.5,29.41,NNW,338,0.0,0.0,91,0.00,CLR,SCT,0.00,WeatherDisplay:10.37,2013-08-16 07:40:00,
2013-08-15 23:45:00,53.1,50.5,29.38,NNW,338,0.0,0.0,91,0.00,CLR,SCT,0.00,WeatherDisplay:10.37,2013-08-16 07:45:00,
2013-08-15 23:50:00,53.1,50.5,29.38,NNW,338,0.0,0.0,91,0.00,CLR,SCT,0.00,WeatherDisplay:10.37,2013-08-16 07:50:00,
2013-08-15 23:55:00,53.1,50.5,29.38,NNW,338,0.0,0.0,91,0.00,CLR,SCT,0.00,WeatherDisplay:10.37,2013-08-16 07:55:00,